Time;durP1;ratioP1;P1;durP2;ratioP2;P2;SDS_P1;SDS_P2;PMS_P1;PMS_P2;Temp;Humidity;BMP_temperature;BMP_pressure;BME280_temperature;BME280_humidity;BME280_pressure;Samples;Min_cycle;Max_cycle;Signal;HPM_P1;HPM_P2
2021/12/04 00:02:17;;;;;;;88.82;38.60;;;;;;;3.41;100.00;100044.22;5031965;28;20450;-76
2021/12/04 00:04:46;;;;;;;92.03;38.58;;;;;;;3.41;100.00;100038.97;5031088;28;20042;-76
2021/12/04 00:07:12;;;;;;;91.38;38.00;;;;;;;3.44;100.00;100041.34;5031816;28;20026;-77
2021/12/04 00:09:38;;;;;;;89.72;38.28;;;;;;;3.45;100.00;100029.91;5032200;28;20037;-75
2021/12/04 00:12:06;;;;;;;90.80;38.63;;;;;;;3.44;100.00;100036.09;5032349;28;20436;-77
2021/12/04 00:14:34;;;;;;;87.97;38.67;;;;;;;3.45;100.00;100031.66;5032560;28;20053;-75
2021/12/04 00:16:59;;;;;;;100.45;38.47;;;;;;;3.47;100.00;100022.72;5032319;28;20071;-75
2021/12/04 00:19:25;;;;;;;92.25;37.67;;;;;;;3.46;100.00;100023.69;5031768;28;20037;-76
2021/12/04 00:21:52;;;;;;;92.95;39.78;;;;;;;3.45;100.00;100008.84;5031960;28;20038;-76
2021/12/04 00:24:18;;;;;;;94.35;39.10;;;;;;;3.48;100.00;100008.63;5032147;28;20057;-75
2021/12/04 00:26:43;;;;;;;89.90;38.72;;;;;;;3.48;100.00;100005.16;5032395;28;20065;-76
2021/12/04 00:29:09;;;;;;;93.10;39.50;;;;;;;3.48;100.00;100013.06;5031676;28;20147;-76
2021/12/04 00:31:35;;;;;;;99.30;38.65;;;;;;;3.47;100.00;100027.16;5032164;28;20112;-76
2021/12/04 00:34:01;;;;;;;100.78;39.92;;;;;;;3.47;100.00;100025.34;5030780;28;20091;-75
2021/12/04 00:49:54;;;;;;;101.32;38.70;;;;;;;3.52;100.00;100019.75;5031966;28;20121;-76
2021/12/04 00:52:19;;;;;;;101.15;39.90;;;;;;;3.52;100.00;100014.47;5031435;28;20109;-77
2021/12/04 00:54:46;;;;;;;95.85;37.22;;;;;;;3.51;100.00;100021.53;5031759;28;20508;-76
2021/12/04 00:57:12;;;;;;;92.40;37.95;;;;;;;3.51;100.00;100007.56;5030082;28;20513;-79
2021/12/04 00:59:37;;;;;;;99.28;39.33;;;;;;;3.50;100.00;100005.88;5031749;28;20040;-76
2021/12/04 01:02:04;;;;;;;91.38;36.72;;;;;;;3.52;100.00;99998.69;5034280;28;20025;-76
2021/12/04 01:04:29;;;;;;;97.60;37.90;;;;;;;3.51;100.00;99994.41;5035337;28;20057;-77
2021/12/04 01:06:54;;;;;;;89.53;35.85;;;;;;;3.50;100.00;99988.28;5035493;28;20065;-77
2021/12/04 01:09:22;;;;;;;87.97;35.17;;;;;;;3.50;100.00;99982.22;5033709;28;20030;-77
2021/12/04 01:11:49;;;;;;;94.75;35.92;;;;;;;3.48;100.00;99979.69;5035385;28;20056;-77
2021/12/04 01:14:18;;;;;;;81.82;33.47;;;;;;;3.53;100.00;99981.97;5017468;28;20446;-77
2021/12/04 01:16:44;;;;;;;91.80;35.08;;;;;;;3.51;100.00;99974.19;5035495;28;20025;-76
2021/12/04 01:19:09;;;;;;;89.38;35.40;;;;;;;3.50;100.00;99977.78;5035510;28;20037;-77
2021/12/04 01:21:35;;;;;;;103.50;36.83;;;;;;;3.52;100.00;99978.53;5034823;28;20037;-77
2021/12/04 01:24:02;;;;;;;92.50;36.50;;;;;;;3.51;100.00;99968.13;5035276;28;20029;-77
2021/12/04 01:26:27;;;;;;;90.18;35.60;;;;;;;3.55;100.00;99963.44;5034563;28;20037;-77
2021/12/04 01:28:53;;;;;;;94.95;34.25;;;;;;;3.52;100.00;99960.09;5034118;28;20033;-77
2021/12/04 01:31:19;;;;;;;89.20;32.83;;;;;;;3.51;100.00;99966.31;5034762;28;20029;-78
2021/12/04 01:33:45;;;;;;;97.50;34.40;;;;;;;3.52;100.00;99973.25;5035156;28;20026;-77
2021/12/04 01:36:10;;;;;;;92.45;33.85;;;;;;;3.56;100.00;99967.75;5034997;28;20405;-76
2021/12/04 01:38:36;;;;;;;94.47;35.42;;;;;;;3.52;100.00;99967.13;5034235;28;20275;-77
2021/12/04 01:41:02;;;;;;;95.00;33.90;;;;;;;3.51;100.00;99961.06;5034853;28;20041;-77
2021/12/04 01:43:27;;;;;;;93.82;34.67;;;;;;;3.55;100.00;99964.28;5034885;28;20033;-76
2021/12/04 01:45:54;;;;;;;105.75;34.63;;;;;;;3.52;100.00;99975.03;5033882;28;20095;-76
2021/12/04 01:48:20;;;;;;;95.78;34.28;;;;;;;3.55;100.00;99971.34;5033079;28;20167;-77
2021/12/04 01:50:45;;;;;;;96.53;35.53;;;;;;;3.51;100.00;99971.56;5034737;28;20065;-77
2021/12/04 01:53:10;;;;;;;94.60;33.70;;;;;;;3.55;100.00;99977.44;5034726;28;20116;-77
2021/12/04 01:55:37;;;;;;;99.05;34.25;;;;;;;3.57;100.00;99969.41;5034110;28;20073;-77
2021/12/04 01:58:05;;;;;;;90.47;34.03;;;;;;;3.53;100.00;99971.47;5035007;28;20124;-77
2021/12/04 02:00:33;;;;;;;97.07;34.20;;;;;;;3.52;100.00;99968.00;5034238;28;20030;-77
2021/12/04 02:02:59;;;;;;;102.70;34.50;;;;;;;3.52;100.00;99962.75;5034508;28;20041;-77
2021/12/04 02:05:24;;;;;;;98.28;34.72;;;;;;;3.52;100.00;99964.50;5034099;28;20029;-77
2021/12/04 02:07:50;;;;;;;100.70;33.90;;;;;;;3.50;100.00;99962.00;5034300;28;20466;-76
2021/12/04 02:10:15;;;;;;;103.57;34.10;;;;;;;3.57;100.00;99964.16;5034358;28;20037;-76
2021/12/04 02:12:41;;;;;;;108.75;35.35;;;;;;;3.55;100.00;99971.34;5032534;28;20119;-77
2021/12/04 02:15:11;;;;;;;110.10;36.85;;;;;;;3.57;100.00;99966.78;5034404;28;20503;-76
2021/12/04 02:17:37;;;;;;;104.10;34.57;;;;;;;3.59;100.00;99965.72;5033859;28;20038;-76
2021/12/04 02:20:08;;;;;;;100.28;34.58;;;;;;;3.59;100.00;99960.47;5033964;28;20088;-76
2021/12/04 02:22:33;;;;;;;97.47;33.85;;;;;;;3.61;100.00;99963.81;5033510;28;20049;-76
2021/12/04 02:24:59;;;;;;;103.95;34.85;;;;;;;3.61;100.00;99962.97;5033392;28;20084;-77
2021/12/04 02:27:24;;;;;;;103.47;35.03;;;;;;;3.58;100.00;99965.84;5033603;28;20450;-80
2021/12/04 02:29:50;;;;;;;106.65;34.25;;;;;;;3.59;100.00;99962.28;5033943;28;20091;-76
2021/12/04 02:32:19;;;;;;;103.65;33.40;;;;;;;3.58;100.00;99958.78;5032529;28;20472;-76
2021/12/04 02:34:44;;;;;;;103.05;33.58;;;;;;;3.59;100.00;99957.84;5032934;28;20190;-76
2021/12/04 02:37:09;;;;;;;95.28;33.30;;;;;;;3.61;100.00;99955.09;5033840;28;20561;-77
2021/12/04 02:39:37;;;;;;;104.22;32.50;;;;;;;3.59;100.00;99952.56;5031522;28;20103;-76
2021/12/04 02:42:06;;;;;;;99.75;32.75;;;;;;;3.55;100.00;99951.13;5033389;28;20068;-76
2021/12/04 02:44:38;;;;;;;104.18;33.97;;;;;;;3.55;100.00;99947.66;5032813;28;20072;-76
2021/12/04 02:47:04;;;;;;;;;;;;;;;3.55;100.00;99945.03;5033836;28;20041;-76
2021/12/04 02:49:29;;;;;;;118.20;34.28;;;;;;;3.52;100.00;99954.84;5032688;28;19918;-77
2021/12/04 02:51:59;;;;;;;117.05;34.67;;;;;;;3.50;100.00;99940.13;5033219;28;20056;-77
2021/12/04 02:54:25;;;;;;;125.53;34.45;;;;;;;3.49;100.00;99938.44;5033123;28;20038;-76
2021/12/04 02:56:51;;;;;;;125.50;35.20;;;;;;;3.51;100.00;99939.19;5032858;28;20025;-76
2021/12/04 02:59:17;;;;;;;124.32;35.65;;;;;;;3.49;100.00;99946.31;5033270;28;20041;-77
2021/12/04 03:01:43;;;;;;;122.32;35.03;;;;;;;3.49;100.00;99943.69;5032451;28;20120;-77
2021/12/04 03:04:10;;;;;;;121.93;33.28;;;;;;;3.49;100.00;99943.69;5031967;28;20056;-76
2021/12/04 03:06:45;;;;;;;115.45;34.85;;;;;;;3.52;100.00;99938.19;5032588;28;20039;-77
2021/12/04 03:09:12;;;;;;;137.15;37.00;;;;;;;3.49;100.00;99941.06;5032860;28;20436;-76
2021/12/04 03:11:38;;;;;;;135.98;35.42;;;;;;;3.47;100.00;99933.28;5031063;28;20057;-77
2021/12/04 03:14:04;;;;;;;130.00;34.05;;;;;;;3.46;100.00;99931.63;5033038;28;20064;-76
2021/12/04 03:16:31;;;;;;;149.95;35.22;;;;;;;3.47;100.00;99932.47;5032849;28;20175;-81
2021/12/04 03:18:56;;;;;;;146.63;35.95;;;;;;;3.47;100.00;99929.84;5032691;28;20033;-76
2021/12/04 03:21:22;;;;;;;158.50;36.90;;;;;;;3.46;100.00;99917.63;5032615;28;20047;-76
2021/12/04 03:26:42;;;;;;;134.52;34.15;;;;;;;3.48;100.00;99921.84;5027226;28;20394;-77
2021/12/04 03:29:12;;;;;;;127.43;33.72;;;;;;;3.50;100.00;99912.03;5032698;28;20030;-77
2021/12/04 03:42:20;;;;;;;157.15;35.10;;;;;;;3.50;100.00;99877.00;5032556;28;20056;-77
2021/12/04 03:44:45;;;;;;;149.25;35.38;;;;;;;3.48;100.00;99887.63;5030476;28;20033;-76
2021/12/04 03:47:11;;;;;;;147.77;35.35;;;;;;;3.48;100.00;99884.19;5032756;28;20078;-76
2021/12/04 03:49:39;;;;;;;168.20;35.95;;;;;;;3.48;100.00;99887.63;5031607;28;20112;-77
2021/12/04 03:52:06;;;;;;;170.43;36.65;;;;;;;3.47;100.00;99877.22;5032307;28;20064;-75
2021/12/04 03:54:31;;;;;;;149.65;35.38;;;;;;;3.46;100.00;99873.78;5032182;28;20034;-75
2021/12/04 03:57:04;;;;;;;147.10;35.25;;;;;;;3.48;100.00;99871.03;5030255;28;20037;-76
2021/12/04 03:59:34;;;;;;;141.38;34.03;;;;;;;3.48;100.00;99879.75;5032256;28;20528;-76
2021/12/04 04:01:59;;;;;;;161.68;36.08;;;;;;;3.48;100.00;99876.28;5031600;28;20103;-76
2021/12/04 04:04:25;;;;;;;139.70;33.97;;;;;;;3.51;100.00;99882.13;5032208;28;20382;-76
2021/12/04 04:06:50;;;;;;;140.07;34.45;;;;;;;3.52;100.00;99878.56;5031498;28;20471;-76
2021/12/04 04:09:16;;;;;;;144.52;32.78;;;;;;;3.53;100.00;99884.66;5031930;28;20033;-76
2021/12/04 04:11:41;;;;;;;159.30;35.53;;;;;;;3.52;100.00;99877.72;5029949;28;20092;-77
2021/12/04 04:14:07;;;;;;;176.40;35.72;;;;;;;3.51;100.00;99866.38;5032195;28;20029;-76
2021/12/04 04:16:36;;;;;;;166.68;34.33;;;;;;;3.50;100.00;99862.03;5031964;28;20083;-76
2021/12/04 04:19:02;;;;;;;161.40;35.85;;;;;;;3.50;100.00;99862.03;5031418;28;20029;-75
2021/12/04 04:21:28;;;;;;;165.57;35.72;;;;;;;3.51;100.00;99862.91;5031948;28;20030;-75
2021/12/04 04:23:53;;;;;;;170.35;36.13;;;;;;;3.49;100.00;99857.75;5030083;28;20103;-76
2021/12/04 04:26:18;;;;;;;169.88;35.67;;;;;;;3.51;100.00;99862.91;5031869;28;20108;-75
2021/12/04 04:28:44;;;;;;;186.80;36.75;;;;;;;3.52;100.00;99857.53;5031065;28;20033;-76
2021/12/04 04:31:10;;;;;;;169.27;35.25;;;;;;;3.51;100.00;99868.16;5032124;28;20371;-75
2021/12/04 04:33:39;;;;;;;167.45;36.00;;;;;;;3.51;100.00;99865.53;5032080;28;20543;-75
2021/12/04 04:38:45;;;;;;;175.60;34.15;;;;;;;3.51;100.00;99861.09;5035976;28;20183;-76
2021/12/04 04:57:58;;;;;;;172.57;35.28;;;;;;;3.54;100.00;99836.38;5035674;28;20211;-75
2021/12/04 05:11:09;;;;;;;179.80;35.00;;;;;;;3.52;100.00;99831.22;5034977;28;20047;-75
2021/12/04 05:13:34;;;;;;;172.90;36.70;;;;;;;3.55;100.00;99838.00;5035185;28;20036;-75
2021/12/04 05:16:10;;;;;;;177.70;34.70;;;;;;;3.54;100.00;99823.22;5034568;28;20064;-75
2021/12/04 05:18:38;;;;;;;179.88;34.50;;;;;;;3.52;100.00;99823.34;5035098;28;20448;-76
2021/12/04 05:21:06;;;;;;;178.35;36.15;;;;;;;3.52;100.00;99815.44;5034556;28;20038;-75
2021/12/04 05:23:43;;;;;;;183.70;36.67;;;;;;;3.53;100.00;99816.25;5035003;28;20037;-75
2021/12/04 05:26:12;;;;;;;174.55;35.35;;;;;;;3.51;100.00;99808.50;5034285;28;20699;-76
2021/12/04 05:28:37;;;;;;;188.55;35.63;;;;;;;3.51;100.00;99799.78;5034846;28;20030;-76
2021/12/04 05:31:03;;;;;;;188.77;35.63;;;;;;;3.49;100.00;99802.53;5034269;28;20401;-76
2021/12/04 05:33:29;;;;;;;181.07;35.35;;;;;;;3.48;100.00;99805.28;5034870;28;20087;-75
2021/12/04 05:35:54;;;;;;;178.18;34.05;;;;;;;3.47;100.00;99801.78;5033065;28;20095;-76
2021/12/04 05:38:20;;;;;;;161.10;33.35;;;;;;;3.49;100.00;99806.94;5034951;28;20033;-75
2021/12/04 05:40:46;;;;;;;162.95;34.28;;;;;;;3.50;100.00;99805.97;5034570;28;20087;-75
2021/12/04 05:43:12;;;;;;;172.77;33.60;;;;;;;3.47;100.00;99806.22;5034067;28;20040;-74
2021/12/04 05:45:43;;;;;;;145.27;32.38;;;;;;;3.46;100.00;99808.03;5034803;28;20033;-76
2021/12/04 05:53:19;;;;;;;155.32;33.10;;;;;;;3.47;100.00;99796.53;5033947;28;20044;-75
2021/12/04 05:55:52;;;;;;;159.85;32.92;;;;;;;3.49;100.00;99797.28;5034418;28;20049;-76
2021/12/04 05:58:29;;;;;;;158.05;33.50;;;;;;;3.48;100.00;99798.22;5034519;28;20040;-76
2021/12/04 06:00:58;;;;;;;162.32;32.83;;;;;;;3.47;100.00;99796.53;5033794;28;20409;-77
2021/12/04 06:03:24;;;;;;;144.60;30.88;;;;;;;3.45;100.00;99803.72;5034451;28;20040;-76
2021/12/04 06:05:50;;;;;;;169.88;32.42;;;;;;;3.45;100.00;99802.84;5034401;28;20124;-76
2021/12/04 06:08:16;;;;;;;153.27;31.00;;;;;;;3.44;100.00;99796.78;5033286;28;20112;-77
2021/12/04 06:10:43;;;;;;;153.57;30.45;;;;;;;3.42;100.00;99793.44;5034045;28;20036;-77
2021/12/04 06:13:08;;;;;;;140.20;30.38;;;;;;;3.41;100.00;99791.75;5034002;28;20456;-77
2021/12/04 06:15:35;;;;;;;134.50;30.20;;;;;;;3.41;100.00;99797.00;5034208;28;20045;-77
2021/12/04 06:18:00;;;;;;;118.68;29.52;;;;;;;3.41;100.00;99793.56;5033642;28;20052;-77
2021/12/04 06:23:10;;;;;;;127.38;28.00;;;;;;;3.40;100.00;99790.06;5033470;28;20040;-76
2021/12/04 06:25:36;;;;;;;124.50;27.63;;;;;;;3.39;100.00;99793.66;5033744;28;20120;-76
2021/12/04 06:28:02;;;;;;;116.05;28.50;;;;;;;3.41;100.00;99791.75;5033198;28;20033;-76
2021/12/04 06:30:28;;;;;;;108.40;27.85;;;;;;;3.43;100.00;99786.38;5034087;28;20459;-76
2021/12/04 06:32:54;;;;;;;115.85;29.15;;;;;;;3.41;100.00;99789.13;5033688;28;20079;-76
2021/12/04 06:35:23;;;;;;;119.55;28.40;;;;;;;3.39;100.00;99787.56;5033104;28;20125;-77
2021/12/04 06:37:49;;;;;;;132.65;31.02;;;;;;;3.38;100.00;99785.91;5033543;28;20091;-77
2021/12/04 06:40:17;;;;;;;145.25;33.08;;;;;;;3.35;100.00;99794.84;5032864;28;20141;-77
2021/12/04 06:42:43;;;;;;;134.73;32.90;;;;;;;3.34;100.00;99798.44;5033775;28;20041;-76
2021/12/04 06:45:09;;;;;;;137.15;31.98;;;;;;;3.33;100.00;99796.78;5032832;28;20033;-77
2021/12/04 06:47:37;;;;;;;135.02;31.83;;;;;;;3.33;100.00;99787.09;5033273;28;20034;-76
2021/12/04 06:50:09;;;;;;;149.48;32.85;;;;;;;3.33;100.00;99789.72;5032879;28;20061;-77
2021/12/04 06:52:35;;;;;;;129.35;31.63;;;;;;;3.35;100.00;99793.06;5033183;28;20056;-77
2021/12/04 06:55:01;;;;;;;116.07;28.10;;;;;;;3.32;100.00;99792.47;5033018;28;20038;-78
2021/12/04 06:57:32;;;;;;;113.65;26.65;;;;;;;3.26;100.00;99787.69;5033405;28;20033;-76
2021/12/04 06:59:58;;;;;;;91.20;24.02;;;;;;;3.21;100.00;99785.41;5032646;28;20454;-76
2021/12/04 07:02:24;;;;;;;86.45;24.20;;;;;;;3.20;100.00;99783.72;5031351;28;20065;-76
2021/12/04 07:04:49;;;;;;;73.35;21.60;;;;;;;3.17;100.00;99776.06;5033169;28;20437;-75
2021/12/04 07:07:16;;;;;;;74.47;21.75;;;;;;;3.12;100.00;99781.69;5032217;28;20048;-76
2021/12/04 07:09:43;;;;;;;73.30;22.25;;;;;;;3.11;100.00;99772.13;5033095;28;20025;-76
2021/12/04 07:12:10;;;;;;;75.70;21.02;;;;;;;3.09;100.00;99767.94;5031018;28;20035;-76
2021/12/04 07:14:36;;;;;;;77.43;22.83;;;;;;;3.06;100.00;99771.66;5033060;28;20029;-76
2021/12/04 07:17:03;;;;;;;72.95;22.23;;;;;;;3.07;100.00;99782.97;5032808;28;20033;-80
2021/12/04 07:19:30;;;;;;;87.50;24.02;;;;;;;3.05;100.00;99777.84;5032720;28;20037;-76
2021/12/04 07:21:56;;;;;;;80.80;23.90;;;;;;;3.05;100.00;99774.41;5032540;28;20037;-76
2021/12/04 07:24:21;;;;;;;75.20;23.70;;;;;;;3.05;100.00;99769.97;5032651;28;20086;-76
2021/12/04 07:26:47;;;;;;;79.22;23.95;;;;;;;3.04;100.00;99764.81;5032834;28;20378;-76
2021/12/04 07:29:12;;;;;;;90.35;25.48;;;;;;;3.02;100.00;99751.81;5032138;28;20040;-76
2021/12/04 07:31:38;;;;;;;106.13;26.33;;;;;;;3.02;100.00;99753.59;5032657;28;20505;-76
2021/12/04 07:34:05;;;;;;;115.47;28.60;;;;;;;3.03;100.00;99752.63;5032494;28;20048;-80
2021/12/04 07:36:30;;;;;;;136.65;29.05;;;;;;;3.01;100.00;99742.22;5032192;28;20483;-76
2021/12/04 07:38:56;;;;;;;115.03;27.60;;;;;;;3.03;100.00;99735.09;5032198;28;20057;-76
2021/12/04 07:41:21;;;;;;;130.40;28.92;;;;;;;3.03;100.00;99727.19;5031967;28;20029;-76
2021/12/04 07:43:48;;;;;;;111.57;28.48;;;;;;;3.03;100.00;99737.72;5032264;28;20029;-76
2021/12/04 07:46:14;;;;;;;113.13;28.75;;;;;;;3.01;100.00;99734.34;5031700;28;20037;-76
2021/12/04 07:48:40;;;;;;;104.20;26.60;;;;;;;3.04;100.00;99728.03;5032145;28;20470;-76
2021/12/04 07:51:05;;;;;;;91.60;25.88;;;;;;;3.04;100.00;99728.84;5032171;28;20063;-76
2021/12/04 07:53:32;;;;;;;96.05;26.88;;;;;;;3.04;100.00;99725.41;5031708;28;20041;-76
2021/12/04 07:55:59;;;;;;;102.88;25.70;;;;;;;3.03;100.00;99718.47;5032442;28;20108;-77
2021/12/04 07:58:24;;;;;;;109.35;26.35;;;;;;;3.05;100.00;99721.81;5031562;28;20392;-75
2021/12/04 08:00:50;;;;;;;115.97;28.17;;;;;;;3.03;100.00;99718.47;5032342;28;20029;-77
2021/12/04 08:03:16;;;;;;;144.95;30.00;;;;;;;2.98;100.00;99713.56;5031687;28;20041;-77
2021/12/04 08:05:43;;;;;;;153.23;31.58;;;;;;;2.96;100.00;99711.06;5032127;28;20048;-76
2021/12/04 08:08:09;;;;;;;156.32;32.60;;;;;;;2.97;100.00;99727.66;5030576;28;20029;-84
2021/12/04 08:10:35;;;;;;;139.27;30.17;;;;;;;2.93;100.00;99723.59;5030824;28;20038;-77
2021/12/04 08:13:03;;;;;;;136.20;28.98;;;;;;;2.93;100.00;99731.47;5032218;28;20543;-76
2021/12/04 08:15:30;;;;;;;79.50;21.10;;;;;;;2.86;100.00;99730.28;5031304;28;20026;-76
2021/12/04 08:17:55;;;;;;;79.15;20.15;;;;;;;2.83;100.00;99734.78;5032309;28;20064;-73
2021/12/04 08:20:21;;;;;;;79.57;19.75;;;;;;;2.81;100.00;99741.97;5031247;28;20065;-76
2021/12/04 08:22:47;;;;;;;82.32;19.13;;;;;;;2.82;100.00;99741.03;5032190;28;20077;-75
2021/12/04 08:25:16;;;;;;;82.38;19.10;;;;;;;2.81;100.00;99752.47;5031834;28;20068;-77
2021/12/04 08:27:43;;;;;;;80.93;19.25;;;;;;;2.83;100.00;99754.97;5030683;28;20036;-77
2021/12/04 08:30:13;;;;;;;90.47;18.88;;;;;;;2.83;100.00;99747.09;5031979;28;20029;-77
2021/12/04 08:32:38;;;;;;;71.78;18.77;;;;;;;2.85;100.00;99741.72;5031829;28;20033;-78
2021/12/04 08:35:07;;;;;;;81.22;19.05;;;;;;;2.87;100.00;99739.84;5032069;28;20036;-76
2021/12/04 08:37:32;;;;;;;82.72;19.17;;;;;;;2.91;100.00;99749.13;5032004;28;20033;-77
2021/12/04 08:39:58;;;;;;;86.30;19.33;;;;;;;2.95;100.00;99745.34;5031942;28;20072;-75
2021/12/04 08:42:24;;;;;;;88.25;19.52;;;;;;;2.96;100.00;99734.69;5031334;28;20512;-76
2021/12/04 08:44:51;;;;;;;74.85;18.50;;;;;;;3.01;100.00;99729.09;5031664;28;20061;-76
2021/12/04 08:47:17;;;;;;;72.80;19.17;;;;;;;3.04;100.00;99726.22;5031216;28;20041;-75
2021/12/04 08:49:43;;;;;;;72.70;19.52;;;;;;;3.06;100.00;99721.72;5031514;28;20061;-74
2021/12/04 08:52:10;;;;;;;80.45;19.92;;;;;;;3.08;100.00;99719.78;5031766;28;20389;-76
2021/12/04 08:54:37;;;;;;;78.95;21.25;;;;;;;3.10;100.00;99712.59;5031511;28;20036;-76
2021/12/04 08:57:03;;;;;;;82.75;20.25;;;;;;;3.12;100.00;99708.09;5031576;28;20049;-76
2021/12/04 08:59:29;;;;;;;76.57;20.50;;;;;;;3.16;100.00;99700.78;5031505;28;20384;-77
2021/12/04 09:01:55;;;;;;;88.82;20.63;;;;;;;3.17;100.00;99711.19;5031668;28;20026;-76
2021/12/04 09:04:24;;;;;;;80.43;20.65;;;;;;;3.21;100.00;99708.31;5029817;28;20036;-79
2021/12/04 09:06:51;;;;;;;89.82;23.15;;;;;;;3.23;100.00;99698.53;5031560;28;20045;-75
2021/12/04 09:09:17;;;;;;;79.32;21.45;;;;;;;3.25;100.00;99691.34;5031686;28;20481;-82
2021/12/04 09:11:47;;;;;;;86.40;22.08;;;;;;;3.26;100.00;99698.28;5031337;28;20026;-75
2021/12/04 09:14:16;;;;;;;82.60;22.63;;;;;;;3.27;100.00;99699.94;5030165;28;20514;-74
2021/12/04 09:16:41;;;;;;;91.18;21.92;;;;;;;3.29;100.00;99698.06;5030795;28;20095;-77
2021/12/04 09:19:07;;;;;;;77.72;21.95;;;;;;;3.29;100.00;99696.25;5031387;28;20041;-75
2021/12/04 09:21:35;;;;;;;77.22;23.27;;;;;;;3.30;100.00;99699.69;5030965;28;20088;-76
2021/12/04 09:24:11;;;;;;;76.65;22.48;;;;;;;3.24;100.00;99705.44;5035289;28;20083;-74
2021/12/04 09:26:43;;;;;;;75.03;21.65;;;;;;;3.25;100.00;99704.50;5034575;28;20037;-75
2021/12/04 10:34:15;;;;;;;86.25;28.23;;;;;;;4.26;100.00;99642.88;5032908;28;20056;-75
2021/12/04 10:36:41;;;;;;;89.65;28.88;;;;;;;4.24;100.00;99643.00;5033224;28;20034;-75
2021/12/04 10:39:09;;;;;;;105.78;30.48;;;;;;;4.22;100.00;99631.78;5033524;28;20465;-75
2021/12/04 10:41:43;;;;;;;95.13;31.10;;;;;;;4.21;100.00;99638.00;5032981;28;20076;-73
2021/12/04 10:44:17;;;;;;;106.32;31.02;;;;;;;4.21;100.00;99637.16;5033527;28;20029;-73
2021/12/04 10:47:11;;;;;;;96.88;31.52;;;;;;;4.17;100.00;99641.84;5032717;28;20026;-73
2021/12/04 10:52:57;;;;;;;104.30;29.55;;;;;;;4.12;100.00;99632.66;5022258;28;20072;-73
2021/12/04 10:55:26;;;;;;;113.38;31.42;;;;;;;4.09;100.00;99625.00;5032765;28;20051;-74
2021/12/04 11:01:01;;;;;;;104.97;32.97;;;;;;;4.06;100.00;99623.47;5032568;28;20044;-74
2021/12/04 11:38:27;;;;;;;110.38;31.60;;;;;;;4.12;100.00;99546.63;4990166;28;20073;-72
2021/12/04 11:43:50;;;;;;;117.35;31.40;;;;;;;4.17;100.00;99540.97;5031952;28;20057;-75
2021/12/04 11:48:45;;;;;;;142.07;35.10;;;;;;;4.20;100.00;99538.91;5031506;28;20073;-75
2021/12/04 11:51:15;;;;;;;124.95;32.80;;;;;;;4.21;100.00;99543.22;5032291;28;20037;-75
2021/12/04 11:53:41;;;;;;;125.05;32.10;;;;;;;4.22;100.00;99544.91;5031576;28;20032;-79
2021/12/04 11:56:14;;;;;;;142.23;33.90;;;;;;;4.23;100.00;99562.34;5031999;28;20041;-72
2021/12/04 11:58:41;;;;;;;126.78;31.85;;;;;;;4.24;100.00;99557.94;5032181;28;20029;-74
2021/12/04 12:01:38;;;;;;;108.55;29.88;;;;;;;4.23;100.00;99562.34;5052159;28;20025;-71
2021/12/04 12:04:07;;;;;;;101.22;30.15;;;;;;;4.18;100.00;99558.41;5051029;28;20029;-72
2021/12/04 12:06:40;;;;;;;110.55;30.23;;;;;;;4.11;100.00;99544.94;5052061;28;20381;-74
2021/12/04 12:09:19;;;;;;;94.65;26.02;;;;;;;4.08;100.00;99542.59;5051528;28;20032;-72
2021/12/04 12:11:55;;;;;;;99.78;26.88;;;;;;;4.05;100.00;99545.47;5051337;28;20458;-76
2021/12/04 12:14:39;;;;;;;112.57;28.38;;;;;;;4.07;100.00;99533.00;5043379;28;20105;-70
2021/12/04 12:17:06;;;;;;;87.68;25.40;;;;;;;4.08;100.00;99528.59;5030787;28;20032;-71
2021/12/04 12:19:41;;;;;;;76.30;24.50;;;;;;;4.09;100.00;99528.47;5030989;28;20616;-78
2021/12/04 12:22:34;;;;;;;93.82;25.33;;;;;;;4.09;100.00;99520.56;5030460;28;20041;-72
2021/12/04 12:25:06;;;;;;;75.28;23.65;;;;;;;4.11;100.00;99520.44;5027768;28;20040;-73
2021/12/04 12:34:04;;;;;;;87.88;22.52;;;;;;;4.15;100.00;99514.78;5030883;28;20040;-73
2021/12/04 12:36:22;;;;;;;75.78;20.67;;;;;;;4.18;100.00;99514.50;5012578;28;20477;-72
2021/12/04 12:38:56;;;;;;;69.90;21.52;;;;;;;4.15;100.00;99506.88;5025921;28;20379;-73
2021/12/04 12:41:27;;;;;;;63.08;19.55;;;;;;;4.17;100.00;99510.22;5031869;28;20029;-71
2021/12/04 12:44:02;;;;;;;67.97;20.50;;;;;;;4.15;100.00;99512.16;5031113;28;20033;-73
2021/12/04 12:46:36;;;;;;;63.90;19.83;;;;;;;4.15;100.00;99512.16;5031881;28;20331;-69
2021/12/04 12:49:04;;;;;;;71.97;20.35;;;;;;;4.15;100.00;99504.25;5031004;28;20052;-72
2021/12/04 12:51:34;;;;;;;63.72;19.80;;;;;;;4.16;100.00;99513.78;5031815;28;20099;-72
2021/12/04 12:54:04;;;;;;;66.80;19.73;;;;;;;4.18;100.00;99513.66;5030845;28;20557;-70
2021/12/04 12:56:31;;;;;;;70.32;20.63;;;;;;;4.19;100.00;99504.81;5031542;28;20509;-70
2021/12/04 13:12:54;;;;;;;17.63;4.72;;;;;;;4.11;100.00;99512.53;5034823;28;20059;-71
2021/12/04 13:15:36;;;;;;;14.90;4.50;;;;;;;4.06;100.00;99521.66;5033891;28;20529;-70
2021/12/04 13:18:15;;;;;;;5.65;2.40;;;;;;;4.06;100.00;99520.78;5034758;28;20163;-70
2021/12/04 13:20:41;;;;;;;7.53;2.10;;;;;;;4.04;100.00;99518.28;5034787;28;20021;-68
2021/12/04 13:23:12;;;;;;;6.75;1.55;;;;;;;4.01;100.00;99523.81;5034292;28;20136;-70
2021/12/04 13:25:38;;;;;;;4.93;1.30;;;;;;;4.02;100.00;99527.31;5034977;28;20051;-72
2021/12/04 13:30:29;;;;;;;6.13;1.30;;;;;;;4.04;100.00;99525.38;5035417;28;20049;-69
2021/12/04 13:32:55;;;;;;;6.45;1.35;;;;;;;4.03;100.00;99536.84;5034429;28;20041;-69
2021/12/04 13:35:22;;;;;;;7.57;1.40;;;;;;;4.01;100.00;99541.41;5034840;28;20033;-71
2021/12/04 13:37:55;;;;;;;5.65;0.90;;;;;;;4.00;100.00;99537.09;5034707;28;20044;-70
2021/12/04 13:40:21;;;;;;;4.15;0.90;;;;;;;3.97;100.00;99542.63;5034419;28;20050;-69
2021/12/04 13:42:48;;;;;;;5.82;0.93;;;;;;;3.95;100.00;99540.13;5034793;28;20036;-71
2021/12/04 13:45:18;;;;;;;6.88;1.30;;;;;;;3.94;100.00;99538.47;5034055;28;20046;-70
2021/12/04 13:47:51;;;;;;;3.92;1.35;;;;;;;3.94;100.00;99540.25;5031311;28;20018;-70
2021/12/04 13:53:01;;;;;;;6.05;1.25;;;;;;;3.94;100.00;99543.75;5033487;28;20044;-69
2021/12/04 13:55:27;;;;;;;5.55;1.02;;;;;;;3.95;100.00;99545.41;5034529;28;20033;-70
2021/12/04 13:57:54;;;;;;;8.90;1.23;;;;;;;3.95;100.00;99540.13;5033722;28;20084;-72
2021/12/04 14:00:20;;;;;;;4.90;1.23;;;;;;;3.94;100.00;99546.38;5034296;28;20057;-70
2021/12/04 14:02:45;;;;;;;5.20;1.10;;;;;;;3.95;100.00;99550.66;5016676;28;20063;-71
2021/12/04 14:05:18;;;;;;;9.00;1.58;;;;;;;3.95;100.00;99545.41;5031186;28;20034;-69
2021/12/04 14:07:52;;;;;;;5.47;1.27;;;;;;;3.95;100.00;99552.47;5033983;28;20057;-69
2021/12/04 14:10:29;;;;;;;6.13;1.50;;;;;;;3.97;100.00;99551.38;5034230;28;20060;-76
2021/12/04 14:12:55;;;;;;;4.95;1.40;;;;;;;3.99;100.00;99548.63;5033717;28;20381;-71
2021/12/04 14:15:22;;;;;;;6.05;1.30;;;;;;;4.01;100.00;99560.66;5034047;28;20026;-71
2021/12/04 14:17:49;;;;;;;8.98;1.60;;;;;;;4.03;100.00;99560.53;5033791;28;20030;-74
2021/12/04 14:20:21;;;;;;;11.80;1.65;;;;;;;4.05;100.00;99563.91;5033602;28;20065;-72
2021/12/04 14:22:49;;;;;;;3.75;1.60;;;;;;;4.05;100.00;99556.81;5034143;28;20116;-72
2021/12/04 14:25:16;;;;;;;6.32;2.25;;;;;;;4.05;100.00;99561.25;5033378;28;20045;-72
2021/12/04 14:27:42;;;;;;;7.40;1.60;;;;;;;4.08;100.00;99565.44;5033908;28;20045;-71
2021/12/04 14:30:16;;;;;;;15.43;2.08;;;;;;;4.09;100.00;99567.09;5033051;28;20134;-72
2021/12/04 14:32:44;;;;;;;9.82;2.17;;;;;;;4.12;100.00;99569.47;5032390;28;20367;-72
2021/12/04 14:35:15;;;;;;;16.20;2.72;;;;;;;4.15;100.00;99567.44;5022449;28;20034;-74
2021/12/04 14:37:43;;;;;;;16.08;2.65;;;;;;;4.22;100.00;99565.97;5011066;28;20029;-73
2021/12/04 14:40:12;;;;;;;17.63;2.97;;;;;;;4.31;100.00;99571.41;5008992;28;20674;-72